sensor_id;sensor_type;location;lat;lon;timestamp;temperature;humidity
59973;DHT22;55298;-36.624;-64.282;2022-10-18T00:01:02;18.20;48.60
59973;DHT22;55298;-36.624;-64.282;2022-10-18T00:03:32;18.20;49.00
59973;DHT22;55298;-36.624;-64.282;2022-10-18T00:05:59;18.20;49.20
59973;DHT22;55298;-36.624;-64.282;2022-10-18T00:08:30;18.10;49.30
59973;DHT22;55298;-36.624;-64.282;2022-10-18T00:10:57;18.30;49.50
59973;DHT22;55298;-36.624;-64.282;2022-10-18T00:13:25;18.20;49.50
59973;DHT22;55298;-36.624;-64.282;2022-10-18T00:15:57;18.10;49.70
59973;DHT22;55298;-36.624;-64.282;2022-10-18T00:18:27;18.00;50.10
59973;DHT22;55298;-36.624;-64.282;2022-10-18T00:20:58;17.90;50.40
59973;DHT22;55298;-36.624;-64.282;2022-10-18T00:23:28;17.80;50.70
59973;DHT22;55298;-36.624;-64.282;2022-10-18T00:26:07;17.70;51.00
59973;DHT22;55298;-36.624;-64.282;2022-10-18T00:28:36;17.60;51.40
59973;DHT22;55298;-36.624;-64.282;2022-10-18T00:31:14;17.50;51.50
59973;DHT22;55298;-36.624;-64.282;2022-10-18T00:33:46;17.50;51.80
59973;DHT22;55298;-36.624;-64.282;2022-10-18T00:36:16;17.40;52.10
59973;DHT22;55298;-36.624;-64.282;2022-10-18T00:38:45;17.40;52.30
59973;DHT22;55298;-36.624;-64.282;2022-10-18T00:41:16;17.30;52.60
59973;DHT22;55298;-36.624;-64.282;2022-10-18T00:43:56;17.30;52.80
59973;DHT22;55298;-36.624;-64.282;2022-10-18T00:46:25;17.30;52.80
59973;DHT22;55298;-36.624;-64.282;2022-10-18T00:48:56;17.30;52.90
59973;DHT22;55298;-36.624;-64.282;2022-10-18T00:51:30;17.20;52.90
59973;DHT22;55298;-36.624;-64.282;2022-10-18T00:53:58;17.20;53.00
59973;DHT22;55298;-36.624;-64.282;2022-10-18T00:56:27;17.30;53.00
59973;DHT22;55298;-36.624;-64.282;2022-10-18T00:58:56;17.30;52.90
59973;DHT22;55298;-36.624;-64.282;2022-10-18T01:01:25;17.30;52.80
59973;DHT22;55298;-36.624;-64.282;2022-10-18T01:03:53;17.30;52.80
59973;DHT22;55298;-36.624;-64.282;2022-10-18T01:06:22;17.30;52.70
59973;DHT22;55298;-36.624;-64.282;2022-10-18T01:09:20;17.40;52.70
59973;DHT22;55298;-36.624;-64.282;2022-10-18T01:12:12;17.40;52.60
59973;DHT22;55298;-36.624;-64.282;2022-10-18T01:15:01;17.40;52.60
59973;DHT22;55298;-36.624;-64.282;2022-10-18T01:20:50;17.40;52.60
59973;DHT22;55298;-36.624;-64.282;2022-10-18T01:26:35;17.40;52.80
59973;DHT22;55298;-36.624;-64.282;2022-10-18T01:32:15;17.40;53.00
59973;DHT22;55298;-36.624;-64.282;2022-10-18T01:34:42;17.30;53.10
59973;DHT22;55298;-36.624;-64.282;2022-10-18T01:37:15;17.30;53.30
59973;DHT22;55298;-36.624;-64.282;2022-10-18T01:39:46;17.30;53.40
59973;DHT22;55298;-36.624;-64.282;2022-10-18T01:42:18;17.30;53.60
59973;DHT22;55298;-36.624;-64.282;2022-10-18T01:44:51;17.30;53.70
59973;DHT22;55298;-36.624;-64.282;2022-10-18T01:47:19;17.20;53.80
59973;DHT22;55298;-36.624;-64.282;2022-10-18T01:49:47;17.20;53.90
59973;DHT22;55298;-36.624;-64.282;2022-10-18T01:52:16;17.10;53.90
59973;DHT22;55298;-36.624;-64.282;2022-10-18T01:54:46;17.20;54.10
59973;DHT22;55298;-36.624;-64.282;2022-10-18T01:57:36;17.10;54.30
59973;DHT22;55298;-36.624;-64.282;2022-10-18T02:00:15;17.00;54.50
59973;DHT22;55298;-36.624;-64.282;2022-10-18T02:05:43;17.00;54.90
59973;DHT22;55298;-36.624;-64.282;2022-10-18T02:11:13;16.90;55.10
59973;DHT22;55298;-36.624;-64.282;2022-10-18T02:13:47;16.70;55.30
59973;DHT22;55298;-36.624;-64.282;2022-10-18T02:16:19;16.80;55.60
59973;DHT22;55298;-36.624;-64.282;2022-10-18T02:18:59;16.70;55.60
59973;DHT22;55298;-36.624;-64.282;2022-10-18T02:21:29;16.70;55.80
59973;DHT22;55298;-36.624;-64.282;2022-10-18T02:23:57;16.60;55.90
59973;DHT22;55298;-36.624;-64.282;2022-10-18T02:26:30;16.60;55.90
59973;DHT22;55298;-36.624;-64.282;2022-10-18T02:29:02;16.50;56.10
59973;DHT22;55298;-36.624;-64.282;2022-10-18T02:31:39;16.50;56.30
59973;DHT22;55298;-36.624;-64.282;2022-10-18T02:34:27;16.50;56.40
59973;DHT22;55298;-36.624;-64.282;2022-10-18T02:36:59;16.30;56.50
59973;DHT22;55298;-36.624;-64.282;2022-10-18T02:39:34;16.40;56.80
59973;DHT22;55298;-36.624;-64.282;2022-10-18T02:42:04;16.40;56.80
59973;DHT22;55298;-36.624;-64.282;2022-10-18T02:44:34;16.40;56.90
59973;DHT22;55298;-36.624;-64.282;2022-10-18T02:47:02;16.40;57.00
59973;DHT22;55298;-36.624;-64.282;2022-10-18T02:49:30;16.30;57.10
59973;DHT22;55298;-36.624;-64.282;2022-10-18T02:51:59;16.30;57.30
59973;DHT22;55298;-36.624;-64.282;2022-10-18T02:54:29;16.30;57.50
59973;DHT22;55298;-36.624;-64.282;2022-10-18T02:56:57;16.40;57.70
59973;DHT22;55298;-36.624;-64.282;2022-10-18T02:59:25;16.20;57.70
59973;DHT22;55298;-36.624;-64.282;2022-10-18T03:01:55;16.20;57.90
59973;DHT22;55298;-36.624;-64.282;2022-10-18T03:04:21;16.20;58.10
59973;DHT22;55298;-36.624;-64.282;2022-10-18T03:06:50;16.10;58.30
59973;DHT22;55298;-36.624;-64.282;2022-10-18T03:09:17;16.10;58.60
59973;DHT22;55298;-36.624;-64.282;2022-10-18T03:11:45;16.10;58.80
59973;DHT22;55298;-36.624;-64.282;2022-10-18T03:14:12;16.00;59.00
59973;DHT22;55298;-36.624;-64.282;2022-10-18T03:16:41;15.90;59.20
59973;DHT22;55298;-36.624;-64.282;2022-10-18T03:19:09;15.90;59.40
59973;DHT22;55298;-36.624;-64.282;2022-10-18T03:21:39;15.90;59.70
59973;DHT22;55298;-36.624;-64.282;2022-10-18T03:24:06;15.90;60.00
59973;DHT22;55298;-36.624;-64.282;2022-10-18T03:26:34;15.80;60.30
59973;DHT22;55298;-36.624;-64.282;2022-10-18T03:29:02;15.80;60.80
59973;DHT22;55298;-36.624;-64.282;2022-10-18T03:31:30;15.70;61.30
59973;DHT22;55298;-36.624;-64.282;2022-10-18T03:33:59;15.70;61.80
59973;DHT22;55298;-36.624;-64.282;2022-10-18T03:36:26;15.70;62.20
59973;DHT22;55298;-36.624;-64.282;2022-10-18T03:38:54;15.70;62.60
59973;DHT22;55298;-36.624;-64.282;2022-10-18T03:41:22;15.60;63.00
59973;DHT22;55298;-36.624;-64.282;2022-10-18T03:43:50;15.60;64.30
59973;DHT22;55298;-36.624;-64.282;2022-10-18T03:46:18;15.60;64.00
59973;DHT22;55298;-36.624;-64.282;2022-10-18T03:48:46;15.50;64.60
59973;DHT22;55298;-36.624;-64.282;2022-10-18T03:51:15;15.50;65.10
59973;DHT22;55298;-36.624;-64.282;2022-10-18T03:53:42;15.40;65.50
59973;DHT22;55298;-36.624;-64.282;2022-10-18T03:56:10;15.40;66.20
59973;DHT22;55298;-36.624;-64.282;2022-10-18T03:58:37;15.30;66.80
59973;DHT22;55298;-36.624;-64.282;2022-10-18T04:01:07;15.30;67.30
59973;DHT22;55298;-36.624;-64.282;2022-10-18T04:03:34;15.30;68.00
59973;DHT22;55298;-36.624;-64.282;2022-10-18T04:06:03;15.20;68.60
59973;DHT22;55298;-36.624;-64.282;2022-10-18T04:08:33;15.10;69.30
59973;DHT22;55298;-36.624;-64.282;2022-10-18T04:11:05;15.10;70.10
59973;DHT22;55298;-36.624;-64.282;2022-10-18T04:13:36;15.00;70.70
59973;DHT22;55298;-36.624;-64.282;2022-10-18T04:16:04;15.00;71.40
59973;DHT22;55298;-36.624;-64.282;2022-10-18T04:18:32;14.90;72.20
59973;DHT22;55298;-36.624;-64.282;2022-10-18T04:20:59;14.90;72.90
59973;DHT22;55298;-36.624;-64.282;2022-10-18T04:23:26;14.90;73.50
59973;DHT22;55298;-36.624;-64.282;2022-10-18T04:25:54;14.90;74.40
59973;DHT22;55298;-36.624;-64.282;2022-10-18T04:28:21;14.80;75.00
59973;DHT22;55298;-36.624;-64.282;2022-10-18T04:30:52;14.80;75.80
59973;DHT22;55298;-36.624;-64.282;2022-10-18T04:33:19;14.70;76.40
59973;DHT22;55298;-36.624;-64.282;2022-10-18T04:35:51;14.60;77.60
59973;DHT22;55298;-36.624;-64.282;2022-10-18T04:38:19;14.60;78.30
59973;DHT22;55298;-36.624;-64.282;2022-10-18T04:40:50;14.60;79.20
59973;DHT22;55298;-36.624;-64.282;2022-10-18T04:43:16;14.50;80.10
59973;DHT22;55298;-36.624;-64.282;2022-10-18T04:45:45;14.50;80.80
59973;DHT22;55298;-36.624;-64.282;2022-10-18T04:48:17;14.40;81.60
59973;DHT22;55298;-36.624;-64.282;2022-10-18T04:50:48;14.50;82.40
59973;DHT22;55298;-36.624;-64.282;2022-10-18T04:53:16;14.30;83.30
59973;DHT22;55298;-36.624;-64.282;2022-10-18T04:55:46;14.30;84.50
59973;DHT22;55298;-36.624;-64.282;2022-10-18T04:58:15;14.30;85.40
59973;DHT22;55298;-36.624;-64.282;2022-10-18T05:00:45;14.20;86.30
59973;DHT22;55298;-36.624;-64.282;2022-10-18T05:03:13;14.20;87.20
59973;DHT22;55298;-36.624;-64.282;2022-10-18T05:05:41;14.10;88.10
59973;DHT22;55298;-36.624;-64.282;2022-10-18T05:08:11;14.10;89.00
59973;DHT22;55298;-36.624;-64.282;2022-10-18T05:10:39;14.10;89.90
59973;DHT22;55298;-36.624;-64.282;2022-10-18T05:13:06;14.00;90.40
59973;DHT22;55298;-36.624;-64.282;2022-10-18T05:15:34;14.00;90.70
59973;DHT22;55298;-36.624;-64.282;2022-10-18T05:18:01;13.90;91.10
59973;DHT22;55298;-36.624;-64.282;2022-10-18T05:20:28;13.90;91.30
59973;DHT22;55298;-36.624;-64.282;2022-10-18T05:22:57;13.90;91.70
59973;DHT22;55298;-36.624;-64.282;2022-10-18T05:25:25;13.80;92.20
59973;DHT22;55298;-36.624;-64.282;2022-10-18T05:27:53;13.80;92.70
59973;DHT22;55298;-36.624;-64.282;2022-10-18T05:30:22;13.70;93.00
59973;DHT22;55298;-36.624;-64.282;2022-10-18T05:32:49;13.70;93.40
59973;DHT22;55298;-36.624;-64.282;2022-10-18T05:35:17;13.60;93.80
59973;DHT22;55298;-36.624;-64.282;2022-10-18T05:37:44;13.60;94.10
59973;DHT22;55298;-36.624;-64.282;2022-10-18T05:40:12;13.60;94.50
59973;DHT22;55298;-36.624;-64.282;2022-10-18T05:42:44;13.50;94.90
59973;DHT22;55298;-36.624;-64.282;2022-10-18T05:45:11;13.50;94.90
59973;DHT22;55298;-36.624;-64.282;2022-10-18T05:47:40;13.50;95.50
59973;DHT22;55298;-36.624;-64.282;2022-10-18T05:50:08;13.50;96.00
59973;DHT22;55298;-36.624;-64.282;2022-10-18T05:52:36;13.40;96.20
59973;DHT22;55298;-36.624;-64.282;2022-10-18T05:55:03;13.40;96.50
59973;DHT22;55298;-36.624;-64.282;2022-10-18T05:57:31;13.40;96.90
59973;DHT22;55298;-36.624;-64.282;2022-10-18T05:59:58;13.40;97.10
59973;DHT22;55298;-36.624;-64.282;2022-10-18T06:02:27;13.30;97.40
59973;DHT22;55298;-36.624;-64.282;2022-10-18T06:04:54;13.30;97.80
59973;DHT22;55298;-36.624;-64.282;2022-10-18T06:07:22;13.30;98.10
59973;DHT22;55298;-36.624;-64.282;2022-10-18T06:09:49;13.20;98.40
59973;DHT22;55298;-36.624;-64.282;2022-10-18T06:12:18;13.20;98.80
59973;DHT22;55298;-36.624;-64.282;2022-10-18T06:14:46;13.10;99.10
59973;DHT22;55298;-36.624;-64.282;2022-10-18T06:17:14;13.10;99.50
59973;DHT22;55298;-36.624;-64.282;2022-10-18T06:19:42;13.00;99.70
59973;DHT22;55298;-36.624;-64.282;2022-10-18T06:22:11;13.00;99.90
59973;DHT22;55298;-36.624;-64.282;2022-10-18T06:24:40;12.90;99.90
59973;DHT22;55298;-36.624;-64.282;2022-10-18T06:27:08;12.90;99.90
59973;DHT22;55298;-36.624;-64.282;2022-10-18T06:29:36;12.90;99.90
59973;DHT22;55298;-36.624;-64.282;2022-10-18T06:32:07;12.90;99.90
59973;DHT22;55298;-36.624;-64.282;2022-10-18T06:34:34;12.90;99.90
59973;DHT22;55298;-36.624;-64.282;2022-10-18T06:37:07;12.80;99.90
59973;DHT22;55298;-36.624;-64.282;2022-10-18T06:39:34;12.80;99.90
59973;DHT22;55298;-36.624;-64.282;2022-10-18T06:42:02;12.70;99.90
59973;DHT22;55298;-36.624;-64.282;2022-10-18T06:44:29;12.70;99.90
59973;DHT22;55298;-36.624;-64.282;2022-10-18T06:46:58;12.70;99.90
59973;DHT22;55298;-36.624;-64.282;2022-10-18T06:49:25;12.60;99.90
59973;DHT22;55298;-36.624;-64.282;2022-10-18T06:51:54;12.60;99.90
59973;DHT22;55298;-36.624;-64.282;2022-10-18T06:54:21;12.50;99.90
59973;DHT22;55298;-36.624;-64.282;2022-10-18T06:56:48;12.50;99.90
59973;DHT22;55298;-36.624;-64.282;2022-10-18T06:59:17;12.40;99.90
59973;DHT22;55298;-36.624;-64.282;2022-10-18T07:01:45;12.40;99.90
59973;DHT22;55298;-36.624;-64.282;2022-10-18T07:04:13;12.40;99.90
59973;DHT22;55298;-36.624;-64.282;2022-10-18T07:06:42;12.30;99.90
59973;DHT22;55298;-36.624;-64.282;2022-10-18T07:09:09;12.30;99.90
59973;DHT22;55298;-36.624;-64.282;2022-10-18T07:11:37;12.30;99.90
59973;DHT22;55298;-36.624;-64.282;2022-10-18T07:14:04;12.30;99.90
59973;DHT22;55298;-36.624;-64.282;2022-10-18T07:16:33;12.20;99.90
59973;DHT22;55298;-36.624;-64.282;2022-10-18T07:19:01;12.20;99.90
59973;DHT22;55298;-36.624;-64.282;2022-10-18T07:21:30;12.10;99.90
59973;DHT22;55298;-36.624;-64.282;2022-10-18T07:23:58;12.10;99.90
59973;DHT22;55298;-36.624;-64.282;2022-10-18T07:26:28;12.00;99.90
59973;DHT22;55298;-36.624;-64.282;2022-10-18T07:28:58;12.10;99.90
59973;DHT22;55298;-36.624;-64.282;2022-10-18T07:31:28;12.00;99.90
59973;DHT22;55298;-36.624;-64.282;2022-10-18T07:33:55;11.90;99.90
59973;DHT22;55298;-36.624;-64.282;2022-10-18T07:36:24;11.90;99.90
59973;DHT22;55298;-36.624;-64.282;2022-10-18T07:38:51;11.80;99.90
59973;DHT22;55298;-36.624;-64.282;2022-10-18T07:41:20;11.80;99.90
59973;DHT22;55298;-36.624;-64.282;2022-10-18T07:43:50;11.80;99.90
59973;DHT22;55298;-36.624;-64.282;2022-10-18T07:46:20;11.80;99.90
59973;DHT22;55298;-36.624;-64.282;2022-10-18T07:48:47;11.70;99.90
59973;DHT22;55298;-36.624;-64.282;2022-10-18T07:51:18;11.70;99.90
59973;DHT22;55298;-36.624;-64.282;2022-10-18T07:53:46;11.70;99.90
59973;DHT22;55298;-36.624;-64.282;2022-10-18T07:56:15;11.70;99.90
59973;DHT22;55298;-36.624;-64.282;2022-10-18T07:58:44;11.70;99.90
59973;DHT22;55298;-36.624;-64.282;2022-10-18T08:01:14;11.60;99.90
59973;DHT22;55298;-36.624;-64.282;2022-10-18T08:03:42;11.60;99.90
59973;DHT22;55298;-36.624;-64.282;2022-10-18T08:06:12;11.60;99.90
59973;DHT22;55298;-36.624;-64.282;2022-10-18T08:08:41;11.60;99.90
59973;DHT22;55298;-36.624;-64.282;2022-10-18T08:11:12;11.50;99.90
59973;DHT22;55298;-36.624;-64.282;2022-10-18T08:13:40;11.50;99.90
59973;DHT22;55298;-36.624;-64.282;2022-10-18T08:16:12;11.60;99.90
59973;DHT22;55298;-36.624;-64.282;2022-10-18T08:18:39;11.50;99.90
59973;DHT22;55298;-36.624;-64.282;2022-10-18T08:21:10;11.40;99.90
59973;DHT22;55298;-36.624;-64.282;2022-10-18T08:23:38;11.40;99.90
59973;DHT22;55298;-36.624;-64.282;2022-10-18T08:26:08;11.40;99.90
59973;DHT22;55298;-36.624;-64.282;2022-10-18T08:28:35;11.40;99.90
59973;DHT22;55298;-36.624;-64.282;2022-10-18T08:31:08;11.40;99.90
59973;DHT22;55298;-36.624;-64.282;2022-10-18T08:33:36;11.30;99.90
59973;DHT22;55298;-36.624;-64.282;2022-10-18T08:36:07;11.30;99.90
59973;DHT22;55298;-36.624;-64.282;2022-10-18T08:38:37;11.20;99.90
59973;DHT22;55298;-36.624;-64.282;2022-10-18T08:41:30;11.20;99.90
59973;DHT22;55298;-36.624;-64.282;2022-10-18T08:47:06;11.10;99.90
59973;DHT22;55298;-36.624;-64.282;2022-10-18T08:49:45;11.20;99.90
59973;DHT22;55298;-36.624;-64.282;2022-10-18T08:52:25;11.10;99.90
59973;DHT22;55298;-36.624;-64.282;2022-10-18T08:57:39;11.00;99.90
59973;DHT22;55298;-36.624;-64.282;2022-10-18T09:00:27;10.90;99.90
59973;DHT22;55298;-36.624;-64.282;2022-10-18T09:08:45;10.60;99.90
59973;DHT22;55298;-36.624;-64.282;2022-10-18T09:11:31;10.60;99.90
59973;DHT22;55298;-36.624;-64.282;2022-10-18T09:14:17;10.60;99.90
59973;DHT22;55298;-36.624;-64.282;2022-10-18T09:22:52;10.60;99.90
59973;DHT22;55298;-36.624;-64.282;2022-10-18T09:25:23;10.60;99.90
59973;DHT22;55298;-36.624;-64.282;2022-10-18T09:30:55;10.60;99.90
59973;DHT22;55298;-36.624;-64.282;2022-10-18T09:33:33;10.50;99.90
59973;DHT22;55298;-36.624;-64.282;2022-10-18T09:36:07;10.60;99.90
59973;DHT22;55298;-36.624;-64.282;2022-10-18T09:38:47;10.60;99.90
59973;DHT22;55298;-36.624;-64.282;2022-10-18T09:41:27;10.60;99.90
59973;DHT22;55298;-36.624;-64.282;2022-10-18T09:44:04;10.60;99.90
59973;DHT22;55298;-36.624;-64.282;2022-10-18T09:46:43;10.60;99.90
59973;DHT22;55298;-36.624;-64.282;2022-10-18T09:49:22;10.60;99.90
59973;DHT22;55298;-36.624;-64.282;2022-10-18T09:51:51;10.80;99.90
59973;DHT22;55298;-36.624;-64.282;2022-10-18T09:54:30;10.70;99.90
59973;DHT22;55298;-36.624;-64.282;2022-10-18T09:57:15;10.80;99.90
59973;DHT22;55298;-36.624;-64.282;2022-10-18T09:59:47;10.80;99.90
59973;DHT22;55298;-36.624;-64.282;2022-10-18T10:02:18;10.90;99.90
59973;DHT22;55298;-36.624;-64.282;2022-10-18T10:04:51;10.90;99.90
59973;DHT22;55298;-36.624;-64.282;2022-10-18T10:07:25;10.90;99.90
59973;DHT22;55298;-36.624;-64.282;2022-10-18T10:10:05;11.10;99.90
59973;DHT22;55298;-36.624;-64.282;2022-10-18T10:12:36;11.10;99.90
59973;DHT22;55298;-36.624;-64.282;2022-10-18T10:15:17;11.20;99.90
59973;DHT22;55298;-36.624;-64.282;2022-10-18T10:18:03;11.30;99.90
59973;DHT22;55298;-36.624;-64.282;2022-10-18T10:20:41;11.30;99.90
59973;DHT22;55298;-36.624;-64.282;2022-10-18T10:23:20;11.30;99.90
59973;DHT22;55298;-36.624;-64.282;2022-10-18T10:25:52;11.30;99.90
59973;DHT22;55298;-36.624;-64.282;2022-10-18T10:28:24;11.40;99.90
59973;DHT22;55298;-36.624;-64.282;2022-10-18T10:30:54;11.50;99.90
59973;DHT22;55298;-36.624;-64.282;2022-10-18T10:33:46;11.50;99.90
59973;DHT22;55298;-36.624;-64.282;2022-10-18T10:36:19;11.70;99.90
59973;DHT22;55298;-36.624;-64.282;2022-10-18T10:39:12;11.70;99.90
59973;DHT22;55298;-36.624;-64.282;2022-10-18T10:41:53;11.70;99.90
59973;DHT22;55298;-36.624;-64.282;2022-10-18T10:44:25;11.80;99.90
59973;DHT22;55298;-36.624;-64.282;2022-10-18T10:46:56;11.80;99.90
59973;DHT22;55298;-36.624;-64.282;2022-10-18T10:52:16;11.90;99.90
59973;DHT22;55298;-36.624;-64.282;2022-10-18T10:54:44;11.90;99.90
59973;DHT22;55298;-36.624;-64.282;2022-10-18T10:57:21;12.00;99.90
59973;DHT22;55298;-36.624;-64.282;2022-10-18T10:59:53;12.00;99.90
59973;DHT22;55298;-36.624;-64.282;2022-10-18T11:02:38;12.20;99.90
59973;DHT22;55298;-36.624;-64.282;2022-10-18T11:05:24;12.30;99.90
59973;DHT22;55298;-36.624;-64.282;2022-10-18T11:07:57;12.40;99.90
59973;DHT22;55298;-36.624;-64.282;2022-10-18T11:10:27;12.50;99.90
59973;DHT22;55298;-36.624;-64.282;2022-10-18T11:15:45;12.50;99.90
59973;DHT22;55298;-36.624;-64.282;2022-10-18T11:18:20;12.60;99.90
59973;DHT22;55298;-36.624;-64.282;2022-10-18T11:23:43;12.90;99.90
59973;DHT22;55298;-36.624;-64.282;2022-10-18T11:26:28;12.90;99.90
59973;DHT22;55298;-36.624;-64.282;2022-10-18T11:29:11;13.00;99.90
59973;DHT22;55298;-36.624;-64.282;2022-10-18T11:32:13;13.00;99.90
59973;DHT22;55298;-36.624;-64.282;2022-10-18T11:38:23;13.40;99.90
59973;DHT22;55298;-36.624;-64.282;2022-10-18T11:43:56;14.00;99.90
59973;DHT22;55298;-36.624;-64.282;2022-10-18T11:52:11;14.60;99.90
59973;DHT22;55298;-36.624;-64.282;2022-10-18T11:54:55;14.90;99.90
59973;DHT22;55298;-36.624;-64.282;2022-10-18T11:57:39;14.80;99.90
59973;DHT22;55298;-36.624;-64.282;2022-10-18T12:00:26;14.70;99.90
59973;DHT22;55298;-36.624;-64.282;2022-10-18T12:03:09;14.50;99.90
59973;DHT22;55298;-36.624;-64.282;2022-10-18T12:05:43;14.50;99.90
59973;DHT22;55298;-36.624;-64.282;2022-10-18T12:08:15;14.80;99.90
59973;DHT22;55298;-36.624;-64.282;2022-10-18T12:10:49;15.10;99.90
59973;DHT22;55298;-36.624;-64.282;2022-10-18T12:16:03;15.20;99.90
59973;DHT22;55298;-36.624;-64.282;2022-10-18T12:18:31;15.30;99.90
59973;DHT22;55298;-36.624;-64.282;2022-10-18T12:21:02;15.90;99.90
59973;DHT22;55298;-36.624;-64.282;2022-10-18T12:23:47;15.80;99.90
59973;DHT22;55298;-36.624;-64.282;2022-10-18T12:26:19;15.50;99.90
59973;DHT22;55298;-36.624;-64.282;2022-10-18T12:29:17;15.60;99.90
59973;DHT22;55298;-36.624;-64.282;2022-10-18T12:31:58;16.20;99.90
59973;DHT22;55298;-36.624;-64.282;2022-10-18T12:34:33;16.40;99.90
59973;DHT22;55298;-36.624;-64.282;2022-10-18T12:40:16;16.30;99.90
59973;DHT22;55298;-36.624;-64.282;2022-10-18T12:42:50;16.30;99.90
59973;DHT22;55298;-36.624;-64.282;2022-10-18T12:45:29;16.30;99.90
59973;DHT22;55298;-36.624;-64.282;2022-10-18T12:48:01;16.20;99.90
59973;DHT22;55298;-36.624;-64.282;2022-10-18T12:50:41;16.30;99.90
59973;DHT22;55298;-36.624;-64.282;2022-10-18T12:53:23;16.10;99.90
59973;DHT22;55298;-36.624;-64.282;2022-10-18T12:55:52;16.10;99.90
59973;DHT22;55298;-36.624;-64.282;2022-10-18T12:58:24;16.20;99.90
59973;DHT22;55298;-36.624;-64.282;2022-10-18T13:00:57;16.10;99.90
59973;DHT22;55298;-36.624;-64.282;2022-10-18T13:03:39;16.00;99.90
59973;DHT22;55298;-36.624;-64.282;2022-10-18T13:06:08;15.90;99.90
59973;DHT22;55298;-36.624;-64.282;2022-10-18T13:08:38;16.00;99.90
59973;DHT22;55298;-36.624;-64.282;2022-10-18T13:11:28;16.00;99.90
59973;DHT22;55298;-36.624;-64.282;2022-10-18T13:14:21;16.10;99.90
59973;DHT22;55298;-36.624;-64.282;2022-10-18T13:26:03;16.20;99.90
59973;DHT22;55298;-36.624;-64.282;2022-10-18T13:31:59;17.40;98.50
59973;DHT22;55298;-36.624;-64.282;2022-10-18T13:34:33;18.20;95.20
59973;DHT22;55298;-36.624;-64.282;2022-10-18T13:37:22;18.70;92.90
59973;DHT22;55298;-36.624;-64.282;2022-10-18T13:42:55;19.30;88.70
59973;DHT22;55298;-36.624;-64.282;2022-10-18T13:45:51;18.80;91.00
59973;DHT22;55298;-36.624;-64.282;2022-10-18T13:51:34;18.50;91.60
59973;DHT22;55298;-36.624;-64.282;2022-10-18T13:57:11;19.20;90.50
59973;DHT22;55298;-36.624;-64.282;2022-10-18T14:08:33;19.60;88.20
59973;DHT22;55298;-36.624;-64.282;2022-10-18T14:11:23;19.90;85.50
59973;DHT22;55298;-36.624;-64.282;2022-10-18T14:14:11;19.90;85.60
59973;DHT22;55298;-36.624;-64.282;2022-10-18T14:16:50;19.60;85.70
59973;DHT22;55298;-36.624;-64.282;2022-10-18T14:19:33;19.40;86.60
59973;DHT22;55298;-36.624;-64.282;2022-10-18T14:24:53;19.50;88.10
59973;DHT22;55298;-36.624;-64.282;2022-10-18T14:27:24;19.50;87.20
59973;DHT22;55298;-36.624;-64.282;2022-10-18T14:30:11;19.70;87.00
59973;DHT22;55298;-36.624;-64.282;2022-10-18T14:32:55;19.80;84.90
59973;DHT22;55298;-36.624;-64.282;2022-10-18T14:35:28;19.90;85.10
59973;DHT22;55298;-36.624;-64.282;2022-10-18T14:37:56;20.10;83.90
59973;DHT22;55298;-36.624;-64.282;2022-10-18T14:40:35;19.90;84.60
59973;DHT22;55298;-36.624;-64.282;2022-10-18T14:43:14;19.70;86.40
59973;DHT22;55298;-36.624;-64.282;2022-10-18T14:45:45;20.10;85.90
59973;DHT22;55298;-36.624;-64.282;2022-10-18T14:48:19;20.60;82.10
59973;DHT22;55298;-36.624;-64.282;2022-10-18T14:50:56;20.70;80.90
59973;DHT22;55298;-36.624;-64.282;2022-10-18T14:53:35;21.10;79.10
59973;DHT22;55298;-36.624;-64.282;2022-10-18T14:56:04;21.80;74.60
59973;DHT22;55298;-36.624;-64.282;2022-10-18T14:58:35;21.60;74.20
59973;DHT22;55298;-36.624;-64.282;2022-10-18T15:01:04;21.30;74.90
59973;DHT22;55298;-36.624;-64.282;2022-10-18T15:03:33;21.10;76.70
59973;DHT22;55298;-36.624;-64.282;2022-10-18T15:06:06;21.20;75.70
59973;DHT22;55298;-36.624;-64.282;2022-10-18T15:08:54;21.10;76.60
59973;DHT22;55298;-36.624;-64.282;2022-10-18T15:11:25;21.60;74.80
59973;DHT22;55298;-36.624;-64.282;2022-10-18T15:14:00;21.60;74.00
59973;DHT22;55298;-36.624;-64.282;2022-10-18T15:16:32;21.50;73.40
59973;DHT22;55298;-36.624;-64.282;2022-10-18T15:19:07;21.50;73.90
59973;DHT22;55298;-36.624;-64.282;2022-10-18T15:22:02;21.90;72.50
59973;DHT22;55298;-36.624;-64.282;2022-10-18T15:24:37;22.00;69.60
59973;DHT22;55298;-36.624;-64.282;2022-10-18T15:27:25;21.80;71.60
59973;DHT22;55298;-36.624;-64.282;2022-10-18T15:29:57;21.90;70.30
59973;DHT22;55298;-36.624;-64.282;2022-10-18T15:32:31;21.90;70.20
59973;DHT22;55298;-36.624;-64.282;2022-10-18T15:35:12;21.90;70.20
59973;DHT22;55298;-36.624;-64.282;2022-10-18T15:37:48;21.80;69.60
59973;DHT22;55298;-36.624;-64.282;2022-10-18T15:40:34;21.60;71.00
59973;DHT22;55298;-36.624;-64.282;2022-10-18T15:45:47;21.30;72.50
59973;DHT22;55298;-36.624;-64.282;2022-10-18T15:48:25;21.60;72.10
59973;DHT22;55298;-36.624;-64.282;2022-10-18T15:50:56;21.40;71.50
59973;DHT22;55298;-36.624;-64.282;2022-10-18T15:53:44;21.30;72.50
59973;DHT22;55298;-36.624;-64.282;2022-10-18T15:56:27;21.40;73.00
59973;DHT22;55298;-36.624;-64.282;2022-10-18T15:58:56;21.50;70.90
59973;DHT22;55298;-36.624;-64.282;2022-10-18T16:01:34;21.40;71.00
59973;DHT22;55298;-36.624;-64.282;2022-10-18T16:04:09;21.80;70.40
59973;DHT22;55298;-36.624;-64.282;2022-10-18T16:11:59;21.90;65.40
59973;DHT22;55298;-36.624;-64.282;2022-10-18T16:14:30;21.30;64.00
59973;DHT22;55298;-36.624;-64.282;2022-10-18T16:17:01;22.00;64.10
59973;DHT22;55298;-36.624;-64.282;2022-10-18T16:19:29;22.00;63.00
59973;DHT22;55298;-36.624;-64.282;2022-10-18T16:22:00;22.40;62.40
59973;DHT22;55298;-36.624;-64.282;2022-10-18T16:24:30;22.10;62.20
59973;DHT22;55298;-36.624;-64.282;2022-10-18T16:27:21;21.90;63.60
59973;DHT22;55298;-36.624;-64.282;2022-10-18T16:30:31;21.80;63.60
59973;DHT22;55298;-36.624;-64.282;2022-10-18T16:33:26;22.30;62.00
59973;DHT22;55298;-36.624;-64.282;2022-10-18T16:36:38;22.50;59.30
59973;DHT22;55298;-36.624;-64.282;2022-10-18T16:39:27;22.60;58.70
59973;DHT22;55298;-36.624;-64.282;2022-10-18T16:47:18;22.10;59.90
59973;DHT22;55298;-36.624;-64.282;2022-10-18T16:49:47;23.10;61.10
59973;DHT22;55298;-36.624;-64.282;2022-10-18T16:52:16;22.30;59.10
59973;DHT22;55298;-36.624;-64.282;2022-10-18T16:57:17;22.30;57.80
59973;DHT22;55298;-36.624;-64.282;2022-10-18T16:59:48;22.30;58.40
59973;DHT22;55298;-36.624;-64.282;2022-10-18T17:02:18;22.60;57.70
59973;DHT22;55298;-36.624;-64.282;2022-10-18T17:05:13;23.00;56.30
59973;DHT22;55298;-36.624;-64.282;2022-10-18T17:08:05;22.60;56.60
59973;DHT22;55298;-36.624;-64.282;2022-10-18T17:10:39;22.50;57.80
59973;DHT22;55298;-36.624;-64.282;2022-10-18T17:13:06;22.50;57.30
59973;DHT22;55298;-36.624;-64.282;2022-10-18T17:15:35;22.40;58.10